Hauptseite
METAR-TAF:

METAR-TAF

Flughäfen :

Flughafen La Palma

La Palma, Spanien

Breite: 28-37N, Länge: 017-45W, Höhe: 29 m

Beobachtung

Neuester Wetterbericht von vor 44 Minuten, um 21:30 UTC
Wind 17 kt aus Nord/Nordost, variierte zwischen Nord und Ost/Nordost
Temperatur 19°C
Luftfeuchtigkeit 64%
Luftdruck 1025 hPa
Sichtweite: 9000 m
Aufgelockert bewölkt in der Höhe von 3500 ft
Geschlossene Wolkendecke in der Höhe von 4200 ft

METAR: GCLA 282130Z AUTO 03017KT 360V060 9000 SCT035 OVC042 19/12 Q1025

Zeit: 22:14 (22:14 UTC)

Prognose

Neuester Wetterbericht von vor 2 Stunden und 14 Minuten, um 20:00 UTC
Gültige Prognose vom 28 um 21 UTC bis 29 um 21 UTC
Wind 15 kt aus Nord
Sichtweite 10 km oder mehr
Durchbrochene Bewölkung in der Höhe von 3000 ft

TAF: GCLA 282000Z 2821/2921 01015KT 9999 BKN030 TX20/2914Z TN17/2906Z

Wetterbeobachtungen und Prognosen von mehr als 4000 Flughäfen (METAR und TAF Bericht).

Die verfügbaren Stationen werden durch gelbe und rote Markierungen auf der Karte dargestellt.

Führen Sie die Maus auf sie, um den Namen der Station zu sehen.

Darauf klicken, um die Beobachtung von Wetterbeobachtungen und Prognosen zu sehen.

Um die Karte zu ändern : klicken Sie auf den grünen Tasten mit einem schwarzen Kreuz Zum Vergrößern, auf den grünen Button mit einem Gedankenstrich zu verkleinern, oder auf die grünen Pfeile für benachbarte Karten.


METAR-TAF: